Time;durP1;ratioP1;P1;durP2;ratioP2;P2;SDS_P1;SDS_P2;PMS_P1;PMS_P2;Temp;Humidity;BMP_temperature;BMP_pressure;BME280_temperature;BME280_humidity;BME280_pressure;Samples;Min_cycle;Max_cycle;Signal;HPM_P1;HPM_P2
2021/06/16 00:01:45;;;;;;;0.60;0.60;;;;;;;19.03;51.07;96510.13;5115226;28;20038;-76
2021/06/16 00:04:11;;;;;;;0.95;0.68;;;;;;;19.01;51.20;96509.59;5113572;28;20509;-76
2021/06/16 00:06:38;;;;;;;0.60;0.60;;;;;;;18.98;51.19;96507.47;5114681;28;20475;-76
2021/06/16 00:09:06;;;;;;;0.80;0.80;;;;;;;18.94;51.11;96517.06;5114964;28;20043;-76
2021/06/16 00:11:35;;;;;;;0.60;0.60;;;;;;;18.90;51.66;96516.00;5114888;28;20039;-76
2021/06/16 00:14:02;;;;;;;0.75;0.75;;;;;;;18.88;51.80;96506.69;5114951;28;20422;-75
2021/06/16 00:16:29;;;;;;;1.00;0.88;;;;;;;18.84;51.52;96503.78;5114786;28;20055;-76
2021/06/16 00:18:55;;;;;;;0.70;0.70;;;;;;;18.81;52.19;96510.41;5114011;28;20038;-76
2021/06/16 00:21:21;;;;;;;0.57;0.57;;;;;;;18.77;52.21;96504.03;5115255;28;20032;-75
2021/06/16 00:23:49;;;;;;;0.73;0.70;;;;;;;18.73;52.28;96502.16;5114647;28;20387;-75
2021/06/16 00:26:16;;;;;;;0.80;0.80;;;;;;;18.69;52.79;96499.28;5114491;28;20042;-75
2021/06/16 00:28:43;;;;;;;0.80;0.80;;;;;;;18.65;52.71;96504.31;5114397;28;20039;-76
2021/06/16 00:31:09;;;;;;;0.80;0.80;;;;;;;18.63;52.95;96500.34;5114402;28;20393;-76
2021/06/16 00:33:36;;;;;;;0.60;0.60;;;;;;;18.61;52.96;96499.81;5114712;28;20043;-76
2021/06/16 00:36:02;;;;;;;1.23;0.90;;;;;;;18.56;53.25;96497.97;5114254;28;20056;-76
2021/06/16 00:38:28;;;;;;;1.15;0.95;;;;;;;18.51;53.27;96499.81;5113415;28;20058;-77
2021/06/16 00:40:58;;;;;;;1.20;0.80;;;;;;;18.46;53.77;96495.31;5113846;28;20472;-78
2021/06/16 00:43:24;;;;;;;0.88;0.82;;;;;;;18.42;53.78;96491.59;5114426;28;20031;-78
2021/06/16 00:45:51;;;;;;;1.00;0.85;;;;;;;18.37;53.64;96503.03;5113930;28;20039;-77
2021/06/16 00:48:17;;;;;;;1.13;0.98;;;;;;;18.35;54.10;96501.69;5114376;28;20039;-77
2021/06/16 00:50:43;;;;;;;0.80;0.80;;;;;;;18.28;54.17;96493.97;5112976;28;20042;-77
2021/06/16 00:53:10;;;;;;;1.73;0.80;;;;;;;18.26;54.42;96498.75;5114366;28;20031;-78
2021/06/16 00:55:38;;;;;;;0.80;0.80;;;;;;;18.24;54.76;96501.69;5113854;28;20044;-77
2021/06/16 00:58:10;;;;;;;1.10;0.90;;;;;;;18.18;54.77;96496.63;5114100;28;20035;-78
2021/06/16 01:00:46;;;;;;;1.33;0.80;;;;;;;18.14;54.99;96498.22;5114457;28;20040;-77
2021/06/16 01:03:18;;;;;;;0.80;0.80;;;;;;;18.11;54.88;96502.22;5114529;28;20035;-77
2021/06/16 01:05:49;;;;;;;1.10;1.00;;;;;;;18.09;55.13;96495.59;5113530;28;20038;-77
2021/06/16 01:08:26;;;;;;;1.05;0.77;;;;;;;18.07;55.38;96503.00;5113533;28;20044;-77
2021/06/16 01:10:54;;;;;;;0.75;0.75;;;;;;;18.03;55.27;96489.47;5113798;28;20043;-78
2021/06/16 01:13:32;;;;;;;1.75;0.85;;;;;;;18.03;55.84;96505.38;5114567;28;20035;-78
2021/06/16 01:16:07;;;;;;;1.00;1.00;;;;;;;17.98;55.92;96494.78;5113476;28;20089;-78
2021/06/16 01:18:42;;;;;;;1.35;1.08;;;;;;;17.94;55.82;96499.81;5113709;28;20372;-78
2021/06/16 01:21:08;;;;;;;1.08;0.80;;;;;;;17.90;55.65;96497.94;5113965;28;20040;-76
2021/06/16 01:23:51;;;;;;;1.00;0.90;;;;;;;17.86;56.22;96495.00;5113483;28;20027;-78
2021/06/16 01:26:29;;;;;;;0.80;0.80;;;;;;;17.83;56.26;96500.88;5114296;28;20039;-75
2021/06/16 01:29:00;;;;;;;0.73;0.73;;;;;;;17.79;56.07;96502.41;5113793;28;20399;-77
2021/06/16 01:31:29;;;;;;;1.00;0.90;;;;;;;17.78;56.16;96496.28;5117072;28;20388;-77
2021/06/16 01:33:56;;;;;;;0.95;0.95;;;;;;;17.74;56.26;96495.22;5117304;28;20411;-77
2021/06/16 01:36:25;;;;;;;0.70;0.70;;;;;;;17.72;56.29;96497.34;5116968;28;20055;-76
2021/06/16 01:38:53;;;;;;;0.70;0.70;;;;;;;17.68;56.51;96491.00;5116508;28;20047;-77
2021/06/16 01:41:20;;;;;;;1.48;0.90;;;;;;;17.68;56.63;96498.13;5117879;28;20464;-77
2021/06/16 01:43:49;;;;;;;0.77;0.77;;;;;;;17.67;56.60;96501.84;5118004;27;20031;-76
2021/06/16 01:46:17;;;;;;;0.88;0.88;;;;;;;17.65;56.65;96496.78;5117689;28;20050;-77
2021/06/16 01:48:46;;;;;;;0.70;0.70;;;;;;;17.61;56.68;96501.81;5117457;28;20038;-77
2021/06/16 01:51:14;;;;;;;0.70;0.70;;;;;;;17.61;56.73;96501.03;5117514;28;20027;-76
2021/06/16 01:53:41;;;;;;;1.67;1.00;;;;;;;17.59;56.98;96503.16;5117319;28;20035;-76
2021/06/16 01:56:08;;;;;;;0.95;0.80;;;;;;;17.54;56.94;96498.63;5117545;28;20455;-73
2021/06/16 01:58:36;;;;;;;1.92;0.90;;;;;;;17.53;57.06;96498.88;5116427;28;20028;-76
2021/06/16 02:01:04;;;;;;;1.85;0.85;;;;;;;17.50;56.95;96500.22;5117233;28;20387;-76
2021/06/16 02:03:30;;;;;;;0.82;0.82;;;;;;;17.48;57.00;96501.53;5117539;28;20039;-76
2021/06/16 02:05:58;;;;;;;1.15;1.00;;;;;;;17.46;57.14;96493.84;5117081;28;20047;-76
2021/06/16 02:08:28;;;;;;;0.80;0.80;;;;;;;17.46;57.11;96496.47;5117068;28;20042;-77
2021/06/16 02:10:54;;;;;;;0.93;0.90;;;;;;;17.44;57.17;96495.94;5108226;28;20039;-75
2021/06/16 02:13:36;;;;;;;1.10;0.73;;;;;;;17.41;57.36;96491.19;5117002;28;20035;-75
2021/06/16 02:16:09;;;;;;;0.90;0.90;;;;;;;17.38;57.71;96492.47;5117003;28;20395;-75
2021/06/16 02:18:43;;;;;;;0.90;0.90;;;;;;;17.34;57.73;96488.75;5117428;28;20036;-75
2021/06/16 02:21:10;;;;;;;1.08;0.90;;;;;;;17.32;57.62;96485.56;5117202;28;20042;-75
2021/06/16 02:23:38;;;;;;;0.93;0.93;;;;;;;17.32;57.62;96482.91;5116518;28;20047;-75
2021/06/16 02:26:04;;;;;;;1.17;0.90;;;;;;;17.29;57.75;96483.44;5117149;28;20046;-76
2021/06/16 02:28:31;;;;;;;0.98;0.95;;;;;;;17.27;57.72;96477.59;5116792;27;20040;-75
2021/06/16 02:30:57;;;;;;;1.02;0.80;;;;;;;17.26;58.00;96481.31;5116765;28;20054;-77
2021/06/16 02:33:24;;;;;;;0.80;0.80;;;;;;;17.23;57.99;96474.66;5116730;28;20392;-76
2021/06/16 02:35:50;;;;;;;0.80;0.80;;;;;;;17.21;58.24;96468.03;5116545;28;20058;-76
2021/06/16 02:38:22;;;;;;;0.93;0.93;;;;;;;17.18;58.71;96465.91;5116585;28;20557;-77
2021/06/16 02:40:48;;;;;;;0.80;0.73;;;;;;;17.18;58.56;96463.25;5116374;28;20034;-74
2021/06/16 02:43:16;;;;;;;1.17;0.85;;;;;;;17.17;58.67;96459.78;5116707;28;20466;-75
2021/06/16 02:45:43;;;;;;;1.58;0.90;;;;;;;17.19;58.67;96456.88;5116552;28;20036;-75
2021/06/16 02:48:12;;;;;;;2.30;0.70;;;;;;;17.18;59.16;96455.31;5116699;28;20475;-75
2021/06/16 02:50:42;;;;;;;1.92;0.90;;;;;;;17.18;59.29;96457.97;5116413;28;20043;-75
2021/06/16 02:53:15;;;;;;;1.17;1.08;;;;;;;17.18;59.49;96453.44;5116275;28;20043;-74
2021/06/16 02:55:42;;;;;;;0.82;0.82;;;;;;;17.18;59.27;96453.44;5116593;28;20039;-75
2021/06/16 02:58:11;;;;;;;1.00;1.00;;;;;;;17.18;59.31;96445.50;5116745;28;20376;-75
2021/06/16 03:00:37;;;;;;;1.45;1.20;;;;;;;17.18;59.56;96450.81;5115387;28;20053;-76
2021/06/16 03:03:06;;;;;;;1.30;1.20;;;;;;;17.16;59.72;96449.47;5115248;28;20502;-76
2021/06/16 03:05:36;;;;;;;1.10;1.00;;;;;;;17.15;59.73;96450.50;5115439;28;20230;-73
2021/06/16 03:08:03;;;;;;;1.10;1.10;;;;;;;17.13;59.94;96448.13;5115471;27;20071;-74
2021/06/16 03:10:32;;;;;;;0.98;0.98;;;;;;;17.11;60.25;96447.56;5116070;28;20072;-76
2021/06/16 03:12:59;;;;;;;1.00;1.00;;;;;;;17.10;60.21;96442.56;5115980;28;20036;-75
2021/06/16 03:15:27;;;;;;;1.10;1.10;;;;;;;17.11;60.40;96439.63;5115818;28;20403;-75
2021/06/16 03:17:55;;;;;;;1.00;1.00;;;;;;;17.11;60.41;96439.63;5115741;28;20043;-76
2021/06/16 03:20:24;;;;;;;1.73;1.30;;;;;;;17.11;60.39;96444.13;5116215;28;20059;-75
2021/06/16 03:22:51;;;;;;;1.15;1.15;;;;;;;17.08;60.60;96434.06;5115650;28;20039;-77
2021/06/16 03:25:18;;;;;;;1.08;1.08;;;;;;;17.04;60.83;96439.09;5116050;27;20048;-74
2021/06/16 03:27:46;;;;;;;2.00;1.05;;;;;;;17.03;60.89;96442.81;5115770;28;20374;-75
2021/06/16 03:30:13;;;;;;;1.05;1.02;;;;;;;17.00;61.16;96441.44;5115708;28;20039;-75
2021/06/16 03:32:41;;;;;;;0.90;0.90;;;;;;;16.99;61.18;96441.72;5115490;28;20089;-76
2021/06/16 03:35:08;;;;;;;1.30;1.20;;;;;;;16.99;61.29;96449.66;5114132;28;20431;-75
2021/06/16 03:37:36;;;;;;;1.40;1.30;;;;;;;16.97;61.66;96436.69;5114628;28;20391;-76
2021/06/16 03:40:05;;;;;;;1.30;1.02;;;;;;;16.96;61.86;96439.56;5106149;28;20052;-75
2021/06/16 03:42:35;;;;;;;1.40;1.30;;;;;;;16.96;62.18;96444.88;5115472;27;20028;-75
2021/06/16 03:45:05;;;;;;;1.73;1.10;;;;;;;16.94;61.95;96439.81;5115140;28;20036;-77
2021/06/16 03:47:32;;;;;;;0.77;0.77;;;;;;;16.95;62.07;96445.94;5115618;28;20040;-75
2021/06/16 03:50:00;;;;;;;1.17;1.13;;;;;;;16.93;62.20;96443.53;5115155;28;20051;-75
2021/06/16 03:52:28;;;;;;;0.93;0.93;;;;;;;16.94;62.20;96449.63;5114330;28;20032;-78
2021/06/16 03:54:55;;;;;;;0.88;0.88;;;;;;;16.95;62.46;96440.66;5113881;28;20023;-75
2021/06/16 03:57:21;;;;;;;1.23;1.08;;;;;;;16.97;62.32;96449.13;5114527;28;20051;-78
2021/06/16 03:59:49;;;;;;;1.45;1.35;;;;;;;16.99;62.18;96445.16;5114891;28;20039;-75
2021/06/16 04:02:19;;;;;;;1.27;1.00;;;;;;;17.01;62.59;96448.34;5115444;28;20042;-75
2021/06/16 04:04:46;;;;;;;2.45;1.30;;;;;;;17.02;62.38;96447.28;5115302;28;20376;-74
2021/06/16 04:07:18;;;;;;;1.25;1.15;;;;;;;17.06;62.61;96447.56;5114799;28;20036;-75
2021/06/16 04:09:49;;;;;;;0.85;0.80;;;;;;;17.10;62.66;96442.56;5114560;28;20039;-76
2021/06/16 04:12:17;;;;;;;1.10;1.10;;;;;;;17.14;62.54;96440.97;5115098;28;20369;-75
2021/06/16 04:14:45;;;;;;;1.05;1.05;;;;;;;17.17;62.57;96448.41;5114858;28;20040;-75
2021/06/16 04:17:11;;;;;;;1.25;1.20;;;;;;;17.19;62.77;96443.63;5114833;28;20043;-75
2021/06/16 04:19:37;;;;;;;1.10;1.10;;;;;;;17.24;62.74;96447.13;5114738;28;20035;-75
2021/06/16 04:22:04;;;;;;;2.90;1.13;;;;;;;17.28;62.68;96450.03;5114549;28;20399;-75
2021/06/16 04:24:30;;;;;;;1.10;1.10;;;;;;;17.32;62.58;96447.66;5113535;28;20498;-75
2021/06/16 04:26:57;;;;;;;1.52;1.42;;;;;;;17.35;62.83;96449.78;5113278;28;20039;-75
2021/06/16 04:29:23;;;;;;;1.00;1.00;;;;;;;17.41;62.74;96446.91;5114442;28;20042;-75
2021/06/16 04:31:49;;;;;;;1.33;1.33;;;;;;;17.48;62.87;96446.63;5114362;28;20036;-75
2021/06/16 04:34:16;;;;;;;0.95;0.95;;;;;;;17.57;62.63;96445.06;5113686;28;20044;-75
2021/06/16 04:36:42;;;;;;;3.15;1.33;;;;;;;17.66;62.52;96442.72;5113946;28;20052;-75
2021/06/16 04:39:08;;;;;;;1.10;1.10;;;;;;;17.77;62.52;96443.53;5113234;28;20097;-75
2021/06/16 04:41:36;;;;;;;1.20;1.10;;;;;;;17.89;62.10;96443.28;5115065;28;20039;-75
2021/06/16 04:44:03;;;;;;;3.42;1.20;;;;;;;17.98;61.79;96439.84;5113438;28;20051;-75
2021/06/16 04:46:30;;;;;;;1.38;1.27;;;;;;;18.10;61.74;96441.44;5114049;27;20395;-74
2021/06/16 04:48:58;;;;;;;2.67;1.33;;;;;;;18.18;61.34;96436.38;5112949;28;20464;-74
2021/06/16 04:51:24;;;;;;;1.48;1.20;;;;;;;18.30;61.33;96437.97;5113823;28;20043;-75
2021/06/16 04:53:50;;;;;;;1.83;1.65;;;;;;;18.40;61.07;96436.09;5114074;28;20102;-74
2021/06/16 04:56:16;;;;;;;2.47;1.20;;;;;;;18.51;60.74;96418.28;5114014;28;20036;-74
2021/06/16 04:58:43;;;;;;;1.63;1.00;;;;;;;18.60;60.66;96429.94;5113806;28;20052;-75
2021/06/16 05:01:09;;;;;;;1.60;1.50;;;;;;;18.66;60.33;96431.53;5112634;28;20040;-74
2021/06/16 05:03:35;;;;;;;1.73;1.63;;;;;;;18.60;59.56;96432.59;5113844;28;20039;-73
2021/06/16 05:06:01;;;;;;;2.22;1.40;;;;;;;18.52;59.71;96435.81;5113756;28;20105;-74
2021/06/16 05:08:28;;;;;;;1.55;1.45;;;;;;;18.56;59.54;96436.06;5113463;28;20044;-74
2021/06/16 05:10:54;;;;;;;2.75;1.50;;;;;;;18.73;59.85;96435.75;5113891;28;20472;-74
2021/06/16 05:13:22;;;;;;;1.85;1.30;;;;;;;18.90;59.51;96432.81;5113004;28;20039;-74
2021/06/16 05:15:49;;;;;;;2.05;1.45;;;;;;;19.04;59.07;96421.31;5114007;28;20031;-74
2021/06/16 05:18:16;;;;;;;1.48;1.33;;;;;;;19.19;58.48;96419.66;5113708;28;20032;-74
2021/06/16 05:20:42;;;;;;;1.35;1.25;;;;;;;19.37;58.09;96426.25;5112671;28;20078;-74
2021/06/16 05:23:08;;;;;;;1.52;1.40;;;;;;;19.59;57.90;96431.16;5114097;28;20113;-73
2021/06/16 05:25:35;;;;;;;1.20;1.20;;;;;;;19.84;57.64;96419.56;5113066;28;20043;-73
2021/06/16 05:28:01;;;;;;;2.30;1.30;;;;;;;20.10;56.95;96414.06;5113350;28;20400;-73
2021/06/16 05:30:29;;;;;;;1.48;1.38;;;;;;;20.30;56.43;96405.09;5102955;28;20035;-73
2021/06/16 05:32:55;;;;;;;2.88;1.40;;;;;;;20.50;56.21;96406.78;5112918;28;20047;-73
2021/06/16 05:35:21;;;;;;;2.13;1.15;;;;;;;20.68;55.50;96401.53;5113519;28;20056;-73
2021/06/16 05:37:47;;;;;;;1.92;1.30;;;;;;;20.91;55.31;96395.66;5113517;28;20040;-73
2021/06/16 05:40:15;;;;;;;2.00;1.90;;;;;;;21.10;54.52;96396.47;5112894;28;20387;-74
2021/06/16 05:42:42;;;;;;;2.40;1.77;;;;;;;21.26;53.97;96395.22;5113714;28;20027;-75
2021/06/16 05:45:09;;;;;;;2.50;1.80;;;;;;;21.28;53.49;96384.25;5113500;28;20038;-75
2021/06/16 05:47:35;;;;;;;2.28;1.60;;;;;;;21.34;53.48;96385.00;5113463;28;20046;-75
2021/06/16 05:50:02;;;;;;;4.63;1.92;;;;;;;21.46;53.29;96377.34;5113360;28;20036;-75
2021/06/16 05:52:28;;;;;;;1.52;1.42;;;;;;;21.57;52.78;96375.34;5113407;28;20046;-75
2021/06/16 05:54:55;;;;;;;1.58;1.48;;;;;;;21.67;52.55;96381.31;5113316;28;20039;-76
2021/06/16 05:57:21;;;;;;;2.80;1.50;;;;;;;21.89;52.48;96379.91;5095841;28;20426;-75
2021/06/16 05:59:47;;;;;;;2.85;1.58;;;;;;;22.10;51.74;96375.81;5113247;28;20400;-75
2021/06/16 06:02:13;;;;;;;1.25;1.15;;;;;;;22.31;51.66;96367.47;5113363;28;20036;-76
2021/06/16 06:04:39;;;;;;;1.60;1.50;;;;;;;22.60;51.05;96363.75;5113005;28;20082;-75
2021/06/16 06:07:06;;;;;;;1.45;1.35;;;;;;;22.87;50.62;96363.72;5113746;28;20468;-75
2021/06/16 06:09:32;;;;;;;1.50;1.40;;;;;;;23.08;49.72;96358.75;5113146;28;20053;-75
2021/06/16 06:11:59;;;;;;;3.50;1.40;;;;;;;23.17;49.20;96360.72;5113288;28;20035;-75
2021/06/16 06:14:25;;;;;;;3.75;1.60;;;;;;;23.27;49.19;96357.84;5112983;28;20480;-75
2021/06/16 06:16:51;;;;;;;1.60;1.50;;;;;;;23.45;48.98;96351.50;5114818;28;20040;-76
2021/06/16 06:19:18;;;;;;;1.30;1.20;;;;;;;23.61;48.50;96354.63;5115591;28;20395;-75
2021/06/16 06:21:44;;;;;;;1.40;1.30;;;;;;;23.60;47.89;96361.09;5117186;28;20039;-75
2021/06/16 06:24:10;;;;;;;1.85;1.40;;;;;;;23.49;47.82;96370.44;5116917;28;20054;-74
2021/06/16 06:26:37;;;;;;;1.88;1.33;;;;;;;23.46;47.79;96371.84;5117060;28;20031;-75
2021/06/16 06:29:03;;;;;;;3.25;1.30;;;;;;;23.55;47.29;96384.50;5116962;28;20494;-75
2021/06/16 06:31:31;;;;;;;1.20;1.20;;;;;;;23.58;47.01;96387.38;5116749;28;20462;-75
2021/06/16 06:33:57;;;;;;;1.58;1.30;;;;;;;23.70;46.89;96379.56;5116271;28;20054;-72
2021/06/16 06:36:24;;;;;;;1.20;1.20;;;;;;;23.84;46.43;96378.78;5115613;28;20044;-71
2021/06/16 06:38:51;;;;;;;2.25;1.58;;;;;;;23.85;46.14;96378.44;5115510;28;20032;-71
2021/06/16 06:41:18;;;;;;;1.83;1.13;;;;;;;23.90;45.90;96378.34;5116617;28;20035;-71
2021/06/16 06:43:44;;;;;;;1.42;1.20;;;;;;;24.02;45.81;96376.97;5115977;28;20472;-71
2021/06/16 06:46:11;;;;;;;1.95;1.40;;;;;;;24.07;45.30;96374.19;5116408;28;20039;-72
2021/06/16 06:48:38;;;;;;;1.35;1.20;;;;;;;24.14;45.29;96377.22;5116838;28;20039;-72
2021/06/16 06:51:04;;;;;;;1.80;1.25;;;;;;;24.19;45.01;96368.25;5117093;28;20051;-72
2021/06/16 06:53:30;;;;;;;1.38;1.27;;;;;;;24.29;44.84;96368.00;5116292;27;20036;-72
2021/06/16 06:55:57;;;;;;;1.17;1.17;;;;;;;24.36;44.71;96364.84;5116530;28;20044;-72
2021/06/16 06:58:24;;;;;;;1.20;1.10;;;;;;;24.34;44.32;96370.56;5116425;28;20387;-72
2021/06/16 07:00:50;;;;;;;1.35;1.25;;;;;;;24.39;44.02;96372.31;5116045;28;20098;-72
2021/06/16 07:03:17;;;;;;;1.85;1.05;;;;;;;24.49;43.82;96378.22;5115137;28;20032;-76
2021/06/16 07:05:43;;;;;;;1.15;0.90;;;;;;;24.53;43.70;96373.03;5115426;28;20050;-75
2021/06/16 07:08:10;;;;;;;1.65;1.30;;;;;;;24.68;43.34;96363.78;5115556;28;20044;-75
2021/06/16 07:10:36;;;;;;;1.92;1.10;;;;;;;24.84;43.29;96372.16;5115821;28;20079;-76
2021/06/16 07:13:03;;;;;;;1.20;1.20;;;;;;;24.95;42.63;96365.41;5116145;28;20474;-75
2021/06/16 07:15:31;;;;;;;2.05;1.20;;;;;;;25.10;42.90;96369.56;5115696;27;20031;-75
2021/06/16 07:17:58;;;;;;;4.18;1.05;;;;;;;25.11;42.65;96357.69;5115540;28;20052;-75
2021/06/16 07:20:24;;;;;;;3.05;1.17;;;;;;;25.18;42.62;96370.66;5116423;28;20486;-75
2021/06/16 07:22:51;;;;;;;1.70;1.23;;;;;;;25.18;42.31;96367.97;5114397;28;20470;-75
2021/06/16 07:25:19;;;;;;;2.50;1.00;;;;;;;25.27;42.48;96363.44;5114436;28;20487;-75
2021/06/16 07:27:45;;;;;;;1.58;1.10;;;;;;;25.38;42.37;96363.91;5113079;28;20464;-75
2021/06/16 07:30:14;;;;;;;1.20;1.10;;;;;;;25.38;42.57;96362.03;5116053;28;20039;-75
2021/06/16 07:32:41;;;;;;;2.47;1.10;;;;;;;25.53;42.59;96363.44;5115765;28;20024;-75
2021/06/16 07:35:08;;;;;;;1.30;1.13;;;;;;;25.71;42.95;96353.50;5115700;28;20495;-76
2021/06/16 07:37:36;;;;;;;2.45;1.00;;;;;;;25.91;42.65;96350.19;5105921;28;20047;-76
2021/06/16 07:40:05;;;;;;;1.60;1.20;;;;;;;25.98;42.01;96370.41;5115196;28;20050;-75
2021/06/16 07:42:31;;;;;;;1.63;1.10;;;;;;;26.04;41.92;96364.53;5114982;28;20039;-75
2021/06/16 07:44:57;;;;;;;1.83;1.08;;;;;;;26.33;42.09;96363.00;5114325;28;20074;-75
2021/06/16 07:47:23;;;;;;;1.85;1.10;;;;;;;26.60;41.33;96361.81;5115077;28;20101;-75
2021/06/16 07:49:50;;;;;;;1.60;1.05;;;;;;;26.63;40.93;96365.78;5114992;28;20035;-76
2021/06/16 07:52:16;;;;;;;1.00;0.90;;;;;;;26.80;40.59;96359.53;5115148;28;20448;-75
2021/06/16 07:54:42;;;;;;;0.95;0.85;;;;;;;26.87;40.10;96368.66;5115093;28;20031;-75
2021/06/16 07:57:09;;;;;;;1.67;0.98;;;;;;;26.85;39.49;96367.41;5115168;28;20050;-75
2021/06/16 07:59:35;;;;;;;1.08;0.90;;;;;;;26.91;39.09;96355.34;5115139;28;20039;-75
2021/06/16 08:02:04;;;;;;;2.42;1.10;;;;;;;26.96;38.64;96365.13;5115036;28;20040;-75
2021/06/16 08:04:32;;;;;;;1.92;0.90;;;;;;;27.14;38.34;96362.00;5115375;28;20034;-75
2021/06/16 08:06:58;;;;;;;0.73;0.73;;;;;;;27.27;37.73;96357.50;5114268;28;20055;-75
2021/06/16 08:09:24;;;;;;;0.95;0.95;;;;;;;27.46;37.21;96365.13;5114692;28;20470;-75
2021/06/16 08:11:51;;;;;;;1.48;1.00;;;;;;;27.60;36.74;96366.78;5114013;28;20494;-75
2021/06/16 08:14:17;;;;;;;2.03;1.00;;;;;;;27.80;36.30;96362.47;5114998;28;20036;-75
2021/06/16 08:16:43;;;;;;;1.77;0.73;;;;;;;27.80;35.79;96365.16;5114958;28;20038;-75
2021/06/16 08:19:09;;;;;;;1.00;0.90;;;;;;;27.89;35.53;96357.81;5115291;28;20040;-75
2021/06/16 08:21:36;;;;;;;0.75;0.75;;;;;;;28.01;35.28;96355.13;5113134;28;20063;-75
2021/06/16 08:24:02;;;;;;;2.35;0.93;;;;;;;28.07;34.96;96343.03;5114374;28;20032;-75
2021/06/16 08:26:29;;;;;;;1.08;0.90;;;;;;;28.09;34.63;96356.97;5114313;28;20036;-75
2021/06/16 08:28:55;;;;;;;1.92;0.82;;;;;;;28.07;34.50;96356.50;5114348;28;20036;-75
2021/06/16 08:31:23;;;;;;;1.77;0.63;;;;;;;28.13;34.24;96349.78;5114477;28;20498;-75
2021/06/16 08:33:49;;;;;;;0.70;0.70;;;;;;;28.31;33.72;96347.69;5114699;28;20387;-75
2021/06/16 08:36:16;;;;;;;2.08;0.98;;;;;;;28.35;33.57;96345.13;5114270;28;20047;-76
2021/06/16 08:38:42;;;;;;;0.73;0.70;;;;;;;28.51;33.54;96337.16;5113908;28;20506;-75
2021/06/16 08:41:08;;;;;;;0.80;0.80;;;;;;;28.72;33.31;96345.13;5114083;28;20036;-75
2021/06/16 08:43:40;;;;;;;1.88;0.70;;;;;;;28.95;33.41;96337.38;5112948;28;20045;-75
2021/06/16 08:46:10;;;;;;;1.00;0.90;;;;;;;29.16;33.19;96342.66;5112997;28;20442;-75
2021/06/16 08:48:38;;;;;;;1.23;0.82;;;;;;;29.33;33.02;96336.97;5112860;28;20053;-75
2021/06/16 08:51:05;;;;;;;0.60;0.60;;;;;;;29.34;33.02;96349.34;5113424;28;20058;-75
2021/06/16 08:53:32;;;;;;;1.38;0.70;;;;;;;29.19;32.43;96351.97;5113595;28;20056;-75
2021/06/16 08:55:59;;;;;;;1.33;0.80;;;;;;;29.06;32.74;96352.00;5113718;28;20039;-75
2021/06/16 08:58:26;;;;;;;2.80;0.98;;;;;;;29.12;32.65;96347.16;5113117;28;20047;-75
2021/06/16 09:00:53;;;;;;;1.30;0.70;;;;;;;29.10;32.36;96350.19;5113156;28;20039;-75
2021/06/16 09:03:19;;;;;;;0.70;0.70;;;;;;;29.30;32.64;96351.16;5114003;28;20040;-75
2021/06/16 09:05:49;;;;;;;0.73;0.70;;;;;;;29.56;32.35;96341.84;5114080;28;20035;-74
2021/06/16 09:08:23;;;;;;;1.35;0.70;;;;;;;29.75;32.52;96336.59;5113563;27;20044;-74
2021/06/16 09:10:56;;;;;;;2.28;0.55;;;;;;;29.94;32.27;96338.69;5113707;28;20035;-75
2021/06/16 09:13:29;;;;;;;0.75;0.73;;;;;;;29.98;31.99;96329.88;5114134;28;20043;-76
2021/06/16 09:15:57;;;;;;;0.63;0.60;;;;;;;30.02;32.04;96331.53;5098751;28;20468;-74
2021/06/16 09:18:24;;;;;;;1.85;0.80;;;;;;;30.07;31.98;96336.69;5113889;28;20296;-75
2021/06/16 09:20:55;;;;;;;0.98;0.70;;;;;;;30.09;32.08;96330.91;5113477;28;20028;-75
2021/06/16 09:23:27;;;;;;;2.10;0.70;;;;;;;30.12;31.70;96328.31;5113774;28;20031;-75
2021/06/16 09:26:18;;;;;;;1.80;0.90;;;;;;;30.19;31.29;96335.81;5113500;28;20396;-76
2021/06/16 09:28:45;;;;;;;1.23;0.70;;;;;;;30.18;31.92;96333.47;5113576;28;20032;-75
2021/06/16 09:31:14;;;;;;;1.35;0.70;;;;;;;29.96;31.89;96335.59;5113379;28;20032;-74
2021/06/16 09:33:41;;;;;;;0.75;0.70;;;;;;;30.02;31.95;96334.22;5112551;28;20028;-76
2021/06/16 09:36:20;;;;;;;1.20;0.80;;;;;;;29.94;31.52;96319.75;5113923;28;20043;-75
2021/06/16 09:38:48;;;;;;;3.50;0.90;;;;;;;30.00;31.87;96322.97;5113410;28;20035;-75
2021/06/16 09:41:20;;;;;;;1.95;0.90;;;;;;;30.17;30.91;96319.16;5113525;28;20032;-75
2021/06/16 09:43:49;;;;;;;1.65;1.10;;;;;;;30.25;32.16;96322.81;5113371;28;20466;-75
2021/06/16 09:46:15;;;;;;;0.88;0.80;;;;;;;30.37;31.53;96327.41;5113487;28;20042;-75
2021/06/16 09:48:44;;;;;;;1.17;0.80;;;;;;;30.32;31.37;96325.72;5112324;28;20392;-75
2021/06/16 09:51:17;;;;;;;1.20;0.60;;;;;;;30.24;31.29;96322.03;5114404;28;20036;-74
2021/06/16 09:54:11;;;;;;;1.75;0.73;;;;;;;30.09;30.14;96318.19;5116963;28;20047;-75
2021/06/16 09:56:43;;;;;;;0.60;0.60;;;;;;;30.08;31.14;96323.94;5117000;28;20470;-75
2021/06/16 09:59:11;;;;;;;1.25;0.63;;;;;;;30.29;31.31;96321.03;5117339;28;20058;-75
2021/06/16 10:01:49;;;;;;;0.70;0.70;;;;;;;30.51;31.23;96325.81;5117642;27;20024;-74
2021/06/16 10:04:45;;;;;;;1.20;0.80;;;;;;;30.65;31.75;96317.22;5116741;28;20048;-75
2021/06/16 10:07:20;;;;;;;0.73;0.73;;;;;;;30.81;31.86;96319.94;5116871;28;20040;-75
2021/06/16 10:10:05;;;;;;;2.72;0.70;;;;;;;30.82;30.63;96318.00;5102834;28;20027;-75
2021/06/16 10:12:40;;;;;;;0.60;0.60;;;;;;;30.81;32.76;96325.34;5117125;28;20032;-75
2021/06/16 10:15:15;;;;;;;1.60;0.70;;;;;;;30.83;30.79;96309.53;5117853;27;20028;-75
2021/06/16 10:17:42;;;;;;;1.75;0.90;;;;;;;30.76;31.20;96325.59;5117315;28;20043;-74
2021/06/16 10:20:10;;;;;;;3.00;0.93;;;;;;;30.82;30.92;96312.56;5117361;28;20383;-75
2021/06/16 10:22:37;;;;;;;1.42;1.33;;;;;;;30.91;30.98;96308.56;5115949;28;20050;-75
2021/06/16 10:25:04;;;;;;;0.85;0.60;;;;;;;30.92;31.07;96306.66;5116729;28;20367;-73
2021/06/16 10:27:40;;;;;;;0.90;0.50;;;;;;;30.81;30.69;96306.38;5116902;28;20363;-75
2021/06/16 10:30:13;;;;;;;1.17;0.60;;;;;;;30.64;30.84;96306.75;5116782;28;20452;-75
2021/06/16 10:32:44;;;;;;;1.50;0.80;;;;;;;30.59;30.99;96305.09;5117159;27;20047;-75
2021/06/16 10:35:40;;;;;;;0.80;0.68;;;;;;;30.74;31.39;96295.38;5117126;28;20368;-75
2021/06/16 10:38:16;;;;;;;0.85;0.85;;;;;;;30.99;31.76;96301.38;5117144;27;20040;-74
2021/06/16 10:40:48;;;;;;;0.70;0.70;;;;;;;31.28;30.92;96301.97;5116925;28;20030;-74
2021/06/16 10:43:17;;;;;;;1.30;0.80;;;;;;;31.50;31.21;96295.88;5115791;28;20051;-74
2021/06/16 10:45:54;;;;;;;0.75;0.68;;;;;;;31.73;31.32;96301.34;5116468;27;20031;-75
2021/06/16 10:48:22;;;;;;;1.02;0.80;;;;;;;31.97;30.62;96296.72;5117122;27;20038;-74
2021/06/16 10:50:49;;;;;;;1.15;0.80;;;;;;;32.16;30.60;96291.25;5116670;28;20024;-74
2021/06/16 10:53:19;;;;;;;0.57;0.55;;;;;;;32.34;30.02;96285.34;5116090;28;20039;-75
2021/06/16 10:55:55;;;;;;;0.80;0.80;;;;;;;32.42;30.47;96286.22;5132341;27;20158;-75
2021/06/16 10:58:31;;;;;;;1.17;0.80;;;;;;;32.29;29.95;96288.38;5109976;28;20040;-74
2021/06/16 11:01:11;;;;;;;1.02;0.70;;;;;;;32.31;29.97;96286.06;5110608;28;20039;-74
2021/06/16 11:04:01;;;;;;;1.10;0.80;;;;;;;32.50;30.86;96285.19;5110977;28;20031;-74
2021/06/16 11:06:36;;;;;;;1.85;0.90;;;;;;;32.74;30.07;96284.03;5105422;28;20395;-75
2021/06/16 11:09:14;;;;;;;0.82;0.70;;;;;;;32.95;30.26;96278.13;5099106;28;20032;-74
2021/06/16 11:11:49;;;;;;;0.65;0.65;;;;;;;32.92;28.53;96271.47;5111233;28;20440;-75
2021/06/16 11:14:49;;;;;;;0.60;0.60;;;;;;;32.78;27.97;96274.00;5110949;28;20024;-76
2021/06/16 11:17:27;;;;;;;1.35;0.70;;;;;;;32.80;27.43;96273.63;5083297;28;20040;-74
2021/06/16 11:20:02;;;;;;;0.70;0.70;;;;;;;32.88;28.18;96267.91;5110765;28;20031;-73
2021/06/16 11:22:29;;;;;;;1.55;0.50;;;;;;;32.93;28.26;96278.47;5098301;28;20050;-72
2021/06/16 11:25:08;;;;;;;0.77;0.50;;;;;;;32.85;27.02;96279.53;5110621;28;20042;-73
2021/06/16 11:27:57;;;;;;;1.05;0.73;;;;;;;32.93;26.93;96278.47;5110472;28;20035;-72
2021/06/16 11:30:29;;;;;;;0.80;0.80;;;;;;;32.86;27.50;96278.38;5110578;28;20027;-72
2021/06/16 11:33:27;;;;;;;3.08;1.00;;;;;;;32.99;28.21;96278.13;5110619;28;20056;-72
2021/06/16 11:35:59;;;;;;;0.63;0.52;;;;;;;33.22;27.21;96262.56;5110183;28;20681;-72
2021/06/16 11:38:37;;;;;;;0.80;0.60;;;;;;;33.34;27.62;96269.69;5111066;28;20023;-72
2021/06/16 11:41:17;;;;;;;1.52;0.68;;;;;;;33.39;25.32;96261.22;5110480;28;20039;-72
2021/06/16 11:44:11;;;;;;;1.17;0.90;;;;;;;33.44;26.87;96254.66;5110388;28;20067;-73